sensor_id;sensor_type;location;lat;lon;timestamp;pressure;altitude;pressure_sealevel;temperature
16956;BMP180;8594;52.052;8.354;2022-10-16T00:00:39;100139.00;;;17.20
16956;BMP180;8594;52.052;8.354;2022-10-16T00:03:07;100145.00;;;17.20
16956;BMP180;8594;52.052;8.354;2022-10-16T00:05:40;100151.00;;;17.00
16956;BMP180;8594;52.052;8.354;2022-10-16T00:08:11;100147.00;;;17.10
16956;BMP180;8594;52.052;8.354;2022-10-16T00:10:38;100149.00;;;17.20
16956;BMP180;8594;52.052;8.354;2022-10-16T00:13:06;100144.00;;;17.20
16956;BMP180;8594;52.052;8.354;2022-10-16T00:15:34;100143.00;;;16.90
16956;BMP180;8594;52.052;8.354;2022-10-16T00:18:02;100144.00;;;16.70
16956;BMP180;8594;52.052;8.354;2022-10-16T00:20:29;100152.00;;;16.70
16956;BMP180;8594;52.052;8.354;2022-10-16T00:22:57;100149.00;;;17.00
16956;BMP180;8594;52.052;8.354;2022-10-16T00:25:25;100156.00;;;16.80
16956;BMP180;8594;52.052;8.354;2022-10-16T00:27:52;100153.00;;;16.90
16956;BMP180;8594;52.052;8.354;2022-10-16T00:30:19;100136.00;;;16.90
16956;BMP180;8594;52.052;8.354;2022-10-16T00:32:46;100145.00;;;17.20
16956;BMP180;8594;52.052;8.354;2022-10-16T00:35:13;100151.00;;;17.20
16956;BMP180;8594;52.052;8.354;2022-10-16T00:37:40;100143.00;;;17.10
16956;BMP180;8594;52.052;8.354;2022-10-16T00:40:08;100154.00;;;17.30
16956;BMP180;8594;52.052;8.354;2022-10-16T00:42:36;100143.00;;;17.00
16956;BMP180;8594;52.052;8.354;2022-10-16T00:45:04;100139.00;;;16.70
16956;BMP180;8594;52.052;8.354;2022-10-16T00:47:36;100132.00;;;16.90
16956;BMP180;8594;52.052;8.354;2022-10-16T00:50:09;100136.00;;;17.10
16956;BMP180;8594;52.052;8.354;2022-10-16T00:52:46;100151.00;;;17.00
16956;BMP180;8594;52.052;8.354;2022-10-16T00:55:14;100152.00;;;16.80
16956;BMP180;8594;52.052;8.354;2022-10-16T00:57:43;100147.00;;;17.00
16956;BMP180;8594;52.052;8.354;2022-10-16T01:00:14;100140.00;;;17.10
16956;BMP180;8594;52.052;8.354;2022-10-16T01:02:42;100146.00;;;17.00
16956;BMP180;8594;52.052;8.354;2022-10-16T01:05:09;100156.00;;;16.90
16956;BMP180;8594;52.052;8.354;2022-10-16T01:07:46;100155.00;;;16.90
16956;BMP180;8594;52.052;8.354;2022-10-16T01:10:26;100161.00;;;16.80
16956;BMP180;8594;52.052;8.354;2022-10-16T01:13:01;100170.00;;;16.90
16956;BMP180;8594;52.052;8.354;2022-10-16T01:15:34;100165.00;;;17.10
16956;BMP180;8594;52.052;8.354;2022-10-16T01:18:09;100164.00;;;17.10
16956;BMP180;8594;52.052;8.354;2022-10-16T01:20:46;100162.00;;;16.90
16956;BMP180;8594;52.052;8.354;2022-10-16T01:23:31;100165.00;;;16.80
16956;BMP180;8594;52.052;8.354;2022-10-16T01:26:31;100159.00;;;17.20
16956;BMP180;8594;52.052;8.354;2022-10-16T01:29:08;100166.00;;;17.10
16956;BMP180;8594;52.052;8.354;2022-10-16T01:31:39;100155.00;;;17.00
16956;BMP180;8594;52.052;8.354;2022-10-16T01:34:15;100161.00;;;17.20
16956;BMP180;8594;52.052;8.354;2022-10-16T01:36:50;100154.00;;;17.10
16956;BMP180;8594;52.052;8.354;2022-10-16T01:39:22;100172.00;;;17.00
16956;BMP180;8594;52.052;8.354;2022-10-16T01:41:58;100173.00;;;17.00
16956;BMP180;8594;52.052;8.354;2022-10-16T01:44:32;100174.00;;;17.30
16956;BMP180;8594;52.052;8.354;2022-10-16T01:47:00;100175.00;;;16.90
16956;BMP180;8594;52.052;8.354;2022-10-16T01:49:33;100170.00;;;17.10
16956;BMP180;8594;52.052;8.354;2022-10-16T01:52:06;100174.00;;;17.30
16956;BMP180;8594;52.052;8.354;2022-10-16T01:54:37;100177.00;;;17.20
16956;BMP180;8594;52.052;8.354;2022-10-16T01:57:07;100171.00;;;17.20
16956;BMP180;8594;52.052;8.354;2022-10-16T01:59:47;100175.00;;;17.20
16956;BMP180;8594;52.052;8.354;2022-10-16T02:02:17;100174.00;;;17.10
16956;BMP180;8594;52.052;8.354;2022-10-16T02:04:49;100171.00;;;17.30
16956;BMP180;8594;52.052;8.354;2022-10-16T02:07:18;100174.00;;;17.20
16956;BMP180;8594;52.052;8.354;2022-10-16T02:09:45;100166.00;;;17.30
16956;BMP180;8594;52.052;8.354;2022-10-16T02:12:16;100158.00;;;16.80
16956;BMP180;8594;52.052;8.354;2022-10-16T02:14:47;100160.00;;;16.80
16956;BMP180;8594;52.052;8.354;2022-10-16T02:17:18;100160.00;;;17.10
16956;BMP180;8594;52.052;8.354;2022-10-16T02:19:48;100162.00;;;17.10
16956;BMP180;8594;52.052;8.354;2022-10-16T02:22:22;100165.00;;;17.00
16956;BMP180;8594;52.052;8.354;2022-10-16T02:24:54;100163.00;;;16.80
16956;BMP180;8594;52.052;8.354;2022-10-16T02:27:29;100158.00;;;16.60
16956;BMP180;8594;52.052;8.354;2022-10-16T02:30:07;100153.00;;;16.40
16956;BMP180;8594;52.052;8.354;2022-10-16T02:32:41;100165.00;;;16.50
16956;BMP180;8594;52.052;8.354;2022-10-16T02:35:10;100155.00;;;16.30
16956;BMP180;8594;52.052;8.354;2022-10-16T02:37:40;100163.00;;;16.60
16956;BMP180;8594;52.052;8.354;2022-10-16T02:40:09;100168.00;;;16.70
16956;BMP180;8594;52.052;8.354;2022-10-16T02:42:39;100165.00;;;16.70
16956;BMP180;8594;52.052;8.354;2022-10-16T02:45:10;100168.00;;;16.30
16956;BMP180;8594;52.052;8.354;2022-10-16T02:47:37;100179.00;;;16.50
16956;BMP180;8594;52.052;8.354;2022-10-16T02:50:06;100177.00;;;16.40
16956;BMP180;8594;52.052;8.354;2022-10-16T02:52:32;100165.00;;;16.50
16956;BMP180;8594;52.052;8.354;2022-10-16T02:54:59;100167.00;;;16.70
16956;BMP180;8594;52.052;8.354;2022-10-16T02:57:27;100167.00;;;16.40
16956;BMP180;8594;52.052;8.354;2022-10-16T02:59:54;100163.00;;;16.20
16956;BMP180;8594;52.052;8.354;2022-10-16T03:02:22;100174.00;;;16.10
16956;BMP180;8594;52.052;8.354;2022-10-16T03:04:49;100182.00;;;16.20
16956;BMP180;8594;52.052;8.354;2022-10-16T03:07:16;100179.00;;;16.00
16956;BMP180;8594;52.052;8.354;2022-10-16T03:09:43;100175.00;;;15.90
16956;BMP180;8594;52.052;8.354;2022-10-16T03:12:09;100177.00;;;16.00
16956;BMP180;8594;52.052;8.354;2022-10-16T03:14:37;100180.00;;;16.10
16956;BMP180;8594;52.052;8.354;2022-10-16T03:17:05;100174.00;;;16.00
16956;BMP180;8594;52.052;8.354;2022-10-16T03:19:33;100173.00;;;16.00
16956;BMP180;8594;52.052;8.354;2022-10-16T03:22:01;100181.00;;;15.80
16956;BMP180;8594;52.052;8.354;2022-10-16T03:24:28;100182.00;;;15.70
16956;BMP180;8594;52.052;8.354;2022-10-16T03:26:55;100174.00;;;16.10
16956;BMP180;8594;52.052;8.354;2022-10-16T03:29:22;100166.00;;;16.00
16956;BMP180;8594;52.052;8.354;2022-10-16T03:31:49;100167.00;;;16.00
16956;BMP180;8594;52.052;8.354;2022-10-16T03:34:16;100167.00;;;16.10
16956;BMP180;8594;52.052;8.354;2022-10-16T03:36:44;100174.00;;;16.10
16956;BMP180;8594;52.052;8.354;2022-10-16T03:39:11;100172.00;;;16.10
16956;BMP180;8594;52.052;8.354;2022-10-16T03:41:38;100175.00;;;15.90
16956;BMP180;8594;52.052;8.354;2022-10-16T03:44:05;100179.00;;;15.70
16956;BMP180;8594;52.052;8.354;2022-10-16T03:46:32;100181.00;;;15.90
16956;BMP180;8594;52.052;8.354;2022-10-16T03:48:58;100182.00;;;15.80
16956;BMP180;8594;52.052;8.354;2022-10-16T03:51:25;100169.00;;;15.90
16956;BMP180;8594;52.052;8.354;2022-10-16T03:53:54;100184.00;;;16.10
16956;BMP180;8594;52.052;8.354;2022-10-16T03:56:20;100173.00;;;16.00
16956;BMP180;8594;52.052;8.354;2022-10-16T03:58:48;100182.00;;;16.20
16956;BMP180;8594;52.052;8.354;2022-10-16T04:01:14;100171.00;;;15.90
16956;BMP180;8594;52.052;8.354;2022-10-16T04:03:41;100175.00;;;15.80
16956;BMP180;8594;52.052;8.354;2022-10-16T04:06:08;100177.00;;;16.20
16956;BMP180;8594;52.052;8.354;2022-10-16T04:08:35;100171.00;;;16.50
16956;BMP180;8594;52.052;8.354;2022-10-16T04:11:06;100169.00;;;16.60
16956;BMP180;8594;52.052;8.354;2022-10-16T04:13:32;100167.00;;;16.00
16956;BMP180;8594;52.052;8.354;2022-10-16T04:15:59;100180.00;;;16.00
16956;BMP180;8594;52.052;8.354;2022-10-16T04:18:26;100175.00;;;16.20
16956;BMP180;8594;52.052;8.354;2022-10-16T04:20:54;100183.00;;;15.90
16956;BMP180;8594;52.052;8.354;2022-10-16T04:23:21;100184.00;;;16.20
16956;BMP180;8594;52.052;8.354;2022-10-16T04:25:49;100190.00;;;16.20
16956;BMP180;8594;52.052;8.354;2022-10-16T04:28:17;100199.00;;;16.00
16956;BMP180;8594;52.052;8.354;2022-10-16T04:30:44;100205.00;;;16.20
16956;BMP180;8594;52.052;8.354;2022-10-16T04:33:11;100202.00;;;16.50
16956;BMP180;8594;52.052;8.354;2022-10-16T04:35:38;100201.00;;;16.30
16956;BMP180;8594;52.052;8.354;2022-10-16T04:38:05;100209.00;;;16.20
16956;BMP180;8594;52.052;8.354;2022-10-16T04:40:32;100209.00;;;16.40
16956;BMP180;8594;52.052;8.354;2022-10-16T04:43:02;100205.00;;;16.30
16956;BMP180;8594;52.052;8.354;2022-10-16T04:45:30;100217.00;;;16.50
16956;BMP180;8594;52.052;8.354;2022-10-16T04:47:58;100220.00;;;16.50
16956;BMP180;8594;52.052;8.354;2022-10-16T04:50:25;100211.00;;;16.50
16956;BMP180;8594;52.052;8.354;2022-10-16T04:52:52;100217.00;;;16.50
16956;BMP180;8594;52.052;8.354;2022-10-16T04:55:20;100228.00;;;16.60
16956;BMP180;8594;52.052;8.354;2022-10-16T04:57:47;100235.00;;;16.60
16956;BMP180;8594;52.052;8.354;2022-10-16T05:00:14;100228.00;;;16.80
16956;BMP180;8594;52.052;8.354;2022-10-16T05:02:42;100232.00;;;16.70
16956;BMP180;8594;52.052;8.354;2022-10-16T05:05:09;100232.00;;;16.80
16956;BMP180;8594;52.052;8.354;2022-10-16T05:07:36;100238.00;;;16.70
16956;BMP180;8594;52.052;8.354;2022-10-16T05:10:04;100227.00;;;16.60
16956;BMP180;8594;52.052;8.354;2022-10-16T05:12:32;100230.00;;;17.00
16956;BMP180;8594;52.052;8.354;2022-10-16T05:14:59;100224.00;;;16.60
16956;BMP180;8594;52.052;8.354;2022-10-16T05:17:26;100234.00;;;16.80
16956;BMP180;8594;52.052;8.354;2022-10-16T05:19:54;100236.00;;;16.60
16956;BMP180;8594;52.052;8.354;2022-10-16T05:22:21;100237.00;;;16.60
16956;BMP180;8594;52.052;8.354;2022-10-16T05:24:48;100235.00;;;16.20
16956;BMP180;8594;52.052;8.354;2022-10-16T05:27:15;100238.00;;;16.30
16956;BMP180;8594;52.052;8.354;2022-10-16T05:29:45;100243.00;;;16.50
16956;BMP180;8594;52.052;8.354;2022-10-16T05:32:13;100245.00;;;16.50
16956;BMP180;8594;52.052;8.354;2022-10-16T05:34:39;100239.00;;;16.70
16956;BMP180;8594;52.052;8.354;2022-10-16T05:37:08;100241.00;;;16.60
16956;BMP180;8594;52.052;8.354;2022-10-16T05:39:35;100252.00;;;16.50
16956;BMP180;8594;52.052;8.354;2022-10-16T05:42:03;100246.00;;;16.70
16956;BMP180;8594;52.052;8.354;2022-10-16T05:44:30;100246.00;;;16.80
16956;BMP180;8594;52.052;8.354;2022-10-16T05:46:57;100257.00;;;16.60
16956;BMP180;8594;52.052;8.354;2022-10-16T05:49:24;100270.00;;;16.60
16956;BMP180;8594;52.052;8.354;2022-10-16T05:51:51;100268.00;;;16.40
16956;BMP180;8594;52.052;8.354;2022-10-16T05:54:19;100271.00;;;16.60
16956;BMP180;8594;52.052;8.354;2022-10-16T05:56:46;100278.00;;;16.40
16956;BMP180;8594;52.052;8.354;2022-10-16T05:59:13;100281.00;;;16.80
16956;BMP180;8594;52.052;8.354;2022-10-16T06:01:40;100287.00;;;16.90
16956;BMP180;8594;52.052;8.354;2022-10-16T06:04:08;100290.00;;;16.70
16956;BMP180;8594;52.052;8.354;2022-10-16T06:06:35;100286.00;;;16.70
16956;BMP180;8594;52.052;8.354;2022-10-16T06:09:03;100278.00;;;16.80
16956;BMP180;8594;52.052;8.354;2022-10-16T06:11:33;100283.00;;;16.80
16956;BMP180;8594;52.052;8.354;2022-10-16T06:14:02;100282.00;;;16.70
16956;BMP180;8594;52.052;8.354;2022-10-16T06:16:33;100298.00;;;16.90
16956;BMP180;8594;52.052;8.354;2022-10-16T06:19:00;100300.00;;;17.00
16956;BMP180;8594;52.052;8.354;2022-10-16T06:21:28;100298.00;;;17.10
16956;BMP180;8594;52.052;8.354;2022-10-16T06:23:56;100294.00;;;17.10
16956;BMP180;8594;52.052;8.354;2022-10-16T06:26:27;100302.00;;;17.00
16956;BMP180;8594;52.052;8.354;2022-10-16T06:28:58;100302.00;;;17.20
16956;BMP180;8594;52.052;8.354;2022-10-16T06:31:26;100304.00;;;17.30
16956;BMP180;8594;52.052;8.354;2022-10-16T06:33:54;100309.00;;;17.40
16956;BMP180;8594;52.052;8.354;2022-10-16T06:36:22;100312.00;;;17.10
16956;BMP180;8594;52.052;8.354;2022-10-16T06:38:49;100313.00;;;17.20
16956;BMP180;8594;52.052;8.354;2022-10-16T06:41:18;100317.00;;;17.20
16956;BMP180;8594;52.052;8.354;2022-10-16T06:43:47;100325.00;;;17.30
16956;BMP180;8594;52.052;8.354;2022-10-16T06:46:18;100335.00;;;17.10
16956;BMP180;8594;52.052;8.354;2022-10-16T06:48:45;100346.00;;;17.40
16956;BMP180;8594;52.052;8.354;2022-10-16T06:51:15;100346.00;;;17.30
16956;BMP180;8594;52.052;8.354;2022-10-16T06:53:45;100345.00;;;17.00
16956;BMP180;8594;52.052;8.354;2022-10-16T06:56:16;100347.00;;;17.20
16956;BMP180;8594;52.052;8.354;2022-10-16T06:58:43;100355.00;;;17.20
16956;BMP180;8594;52.052;8.354;2022-10-16T07:01:12;100367.00;;;17.30
16956;BMP180;8594;52.052;8.354;2022-10-16T07:03:43;100363.00;;;17.40
16956;BMP180;8594;52.052;8.354;2022-10-16T07:06:13;100349.00;;;18.40
16956;BMP180;8594;52.052;8.354;2022-10-16T07:08:44;100366.00;;;18.80
16956;BMP180;8594;52.052;8.354;2022-10-16T07:11:13;100369.00;;;18.30
16956;BMP180;8594;52.052;8.354;2022-10-16T07:13:43;100366.00;;;18.70
16956;BMP180;8594;52.052;8.354;2022-10-16T07:16:12;100366.00;;;19.60
16956;BMP180;8594;52.052;8.354;2022-10-16T07:18:43;100369.00;;;20.10
16956;BMP180;8594;52.052;8.354;2022-10-16T07:21:15;100368.00;;;20.40
16956;BMP180;8594;52.052;8.354;2022-10-16T07:23:42;100365.00;;;21.10
16956;BMP180;8594;52.052;8.354;2022-10-16T07:26:11;100380.00;;;21.60
16956;BMP180;8594;52.052;8.354;2022-10-16T07:28:38;100397.00;;;20.70
16956;BMP180;8594;52.052;8.354;2022-10-16T07:31:10;100388.00;;;21.40
16956;BMP180;8594;52.052;8.354;2022-10-16T07:33:41;100401.00;;;20.60
16956;BMP180;8594;52.052;8.354;2022-10-16T07:36:11;100403.00;;;21.10
16956;BMP180;8594;52.052;8.354;2022-10-16T07:38:38;100423.00;;;20.70
16956;BMP180;8594;52.052;8.354;2022-10-16T07:41:07;100431.00;;;20.50
16956;BMP180;8594;52.052;8.354;2022-10-16T07:43:35;100445.00;;;20.80
16956;BMP180;8594;52.052;8.354;2022-10-16T07:46:02;100432.00;;;20.70
16956;BMP180;8594;52.052;8.354;2022-10-16T07:48:32;100450.00;;;20.60
16956;BMP180;8594;52.052;8.354;2022-10-16T07:51:03;100442.00;;;20.10
16956;BMP180;8594;52.052;8.354;2022-10-16T07:53:30;100442.00;;;20.20
16956;BMP180;8594;52.052;8.354;2022-10-16T07:55:58;100454.00;;;20.90
16956;BMP180;8594;52.052;8.354;2022-10-16T07:58:26;100447.00;;;20.40
16956;BMP180;8594;52.052;8.354;2022-10-16T08:00:53;100453.00;;;21.30
16956;BMP180;8594;52.052;8.354;2022-10-16T08:03:20;100450.00;;;21.70
16956;BMP180;8594;52.052;8.354;2022-10-16T08:05:47;100455.00;;;21.70
16956;BMP180;8594;52.052;8.354;2022-10-16T08:08:16;100469.00;;;22.40
16956;BMP180;8594;52.052;8.354;2022-10-16T08:10:44;100476.00;;;22.60
16956;BMP180;8594;52.052;8.354;2022-10-16T08:13:11;100472.00;;;22.90
16956;BMP180;8594;52.052;8.354;2022-10-16T08:15:40;100476.00;;;22.90
16956;BMP180;8594;52.052;8.354;2022-10-16T08:18:07;100482.00;;;22.40
16956;BMP180;8594;52.052;8.354;2022-10-16T08:20:35;100480.00;;;22.40
16956;BMP180;8594;52.052;8.354;2022-10-16T08:23:03;100495.00;;;23.00
16956;BMP180;8594;52.052;8.354;2022-10-16T08:25:31;100495.00;;;22.90
16956;BMP180;8594;52.052;8.354;2022-10-16T08:27:58;100497.00;;;22.80
16956;BMP180;8594;52.052;8.354;2022-10-16T08:30:25;100495.00;;;23.30
16956;BMP180;8594;52.052;8.354;2022-10-16T08:32:52;100504.00;;;23.00
16956;BMP180;8594;52.052;8.354;2022-10-16T08:35:19;100496.00;;;23.70
16956;BMP180;8594;52.052;8.354;2022-10-16T08:37:46;100500.00;;;22.60
16956;BMP180;8594;52.052;8.354;2022-10-16T08:40:19;100505.00;;;23.30
16956;BMP180;8594;52.052;8.354;2022-10-16T08:43:04;100503.00;;;23.40
16956;BMP180;8594;52.052;8.354;2022-10-16T08:45:45;100514.00;;;23.90
16956;BMP180;8594;52.052;8.354;2022-10-16T08:48:21;100501.00;;;24.20
16956;BMP180;8594;52.052;8.354;2022-10-16T08:50:52;100532.00;;;23.90
16956;BMP180;8594;52.052;8.354;2022-10-16T08:53:26;100518.00;;;23.10
16956;BMP180;8594;52.052;8.354;2022-10-16T08:55:54;100523.00;;;23.50
16956;BMP180;8594;52.052;8.354;2022-10-16T08:58:28;100525.00;;;23.10
16956;BMP180;8594;52.052;8.354;2022-10-16T09:00:58;100545.00;;;23.40
16956;BMP180;8594;52.052;8.354;2022-10-16T09:03:45;100537.00;;;22.10
16956;BMP180;8594;52.052;8.354;2022-10-16T09:06:31;100533.00;;;22.70
16956;BMP180;8594;52.052;8.354;2022-10-16T09:09:23;100554.00;;;22.40
16956;BMP180;8594;52.052;8.354;2022-10-16T09:12:00;100559.00;;;22.70
16956;BMP180;8594;52.052;8.354;2022-10-16T09:14:47;100548.00;;;22.50
16956;BMP180;8594;52.052;8.354;2022-10-16T09:17:37;100565.00;;;22.20
16956;BMP180;8594;52.052;8.354;2022-10-16T09:20:25;100561.00;;;22.10
16956;BMP180;8594;52.052;8.354;2022-10-16T09:23:10;100550.00;;;22.40
16956;BMP180;8594;52.052;8.354;2022-10-16T09:25:42;100559.00;;;23.20
16956;BMP180;8594;52.052;8.354;2022-10-16T09:28:10;100555.00;;;22.40
16956;BMP180;8594;52.052;8.354;2022-10-16T09:30:38;100561.00;;;22.30
16956;BMP180;8594;52.052;8.354;2022-10-16T09:33:07;100558.00;;;22.70
16956;BMP180;8594;52.052;8.354;2022-10-16T09:35:39;100557.00;;;22.70
16956;BMP180;8594;52.052;8.354;2022-10-16T09:38:07;100561.00;;;22.80
16956;BMP180;8594;52.052;8.354;2022-10-16T09:40:37;100567.00;;;22.60
16956;BMP180;8594;52.052;8.354;2022-10-16T09:43:22;100557.00;;;23.20
16956;BMP180;8594;52.052;8.354;2022-10-16T09:45:57;100562.00;;;23.40
16956;BMP180;8594;52.052;8.354;2022-10-16T09:48:28;100561.00;;;23.80
16956;BMP180;8594;52.052;8.354;2022-10-16T09:50:59;100573.00;;;23.10
16956;BMP180;8594;52.052;8.354;2022-10-16T09:53:40;100574.00;;;23.20
16956;BMP180;8594;52.052;8.354;2022-10-16T09:56:11;100574.00;;;24.00
16956;BMP180;8594;52.052;8.354;2022-10-16T09:58:42;100579.00;;;23.10
16956;BMP180;8594;52.052;8.354;2022-10-16T10:01:14;100583.00;;;23.90
16956;BMP180;8594;52.052;8.354;2022-10-16T10:03:43;100582.00;;;23.50
16956;BMP180;8594;52.052;8.354;2022-10-16T10:06:22;100595.00;;;23.80
16956;BMP180;8594;52.052;8.354;2022-10-16T10:08:59;100594.00;;;23.90
16956;BMP180;8594;52.052;8.354;2022-10-16T10:11:55;100602.00;;;23.40
16956;BMP180;8594;52.052;8.354;2022-10-16T10:14:35;100604.00;;;24.30
16956;BMP180;8594;52.052;8.354;2022-10-16T10:17:14;100602.00;;;23.70
16956;BMP180;8594;52.052;8.354;2022-10-16T10:19:46;100599.00;;;24.00
16956;BMP180;8594;52.052;8.354;2022-10-16T10:22:23;100603.00;;;23.60
16956;BMP180;8594;52.052;8.354;2022-10-16T10:25:26;100606.00;;;23.40
16956;BMP180;8594;52.052;8.354;2022-10-16T10:28:25;100609.00;;;23.60
16956;BMP180;8594;52.052;8.354;2022-10-16T10:31:02;100605.00;;;22.30
16956;BMP180;8594;52.052;8.354;2022-10-16T10:33:42;100617.00;;;22.70
16956;BMP180;8594;52.052;8.354;2022-10-16T10:36:22;100611.00;;;22.90
16956;BMP180;8594;52.052;8.354;2022-10-16T10:38:58;100628.00;;;22.60
16956;BMP180;8594;52.052;8.354;2022-10-16T10:42:11;100627.00;;;22.90
16956;BMP180;8594;52.052;8.354;2022-10-16T10:45:04;100622.00;;;23.30
16956;BMP180;8594;52.052;8.354;2022-10-16T10:47:49;100627.00;;;22.80
16956;BMP180;8594;52.052;8.354;2022-10-16T10:50:29;100642.00;;;24.00
16956;BMP180;8594;52.052;8.354;2022-10-16T10:53:07;100629.00;;;23.10
16956;BMP180;8594;52.052;8.354;2022-10-16T10:55:45;100631.00;;;23.10
16956;BMP180;8594;52.052;8.354;2022-10-16T10:58:53;100641.00;;;23.70
16956;BMP180;8594;52.052;8.354;2022-10-16T11:01:32;100638.00;;;22.70
16956;BMP180;8594;52.052;8.354;2022-10-16T11:07:25;100639.00;;;22.60
16956;BMP180;8594;52.052;8.354;2022-10-16T11:09:59;100638.00;;;22.80
16956;BMP180;8594;52.052;8.354;2022-10-16T11:12:34;100635.00;;;22.00
16956;BMP180;8594;52.052;8.354;2022-10-16T11:15:12;100644.00;;;22.20
16956;BMP180;8594;52.052;8.354;2022-10-16T11:17:45;100641.00;;;22.70
16956;BMP180;8594;52.052;8.354;2022-10-16T11:20:20;100641.00;;;23.00
16956;BMP180;8594;52.052;8.354;2022-10-16T11:22:55;100636.00;;;23.30
16956;BMP180;8594;52.052;8.354;2022-10-16T11:25:26;100645.00;;;23.80
16956;BMP180;8594;52.052;8.354;2022-10-16T11:28:02;100642.00;;;23.50
16956;BMP180;8594;52.052;8.354;2022-10-16T11:30:35;100640.00;;;23.90
16956;BMP180;8594;52.052;8.354;2022-10-16T11:33:25;100646.00;;;24.30
16956;BMP180;8594;52.052;8.354;2022-10-16T11:36:06;100642.00;;;24.20
16956;BMP180;8594;52.052;8.354;2022-10-16T11:38:44;100644.00;;;23.40
16956;BMP180;8594;52.052;8.354;2022-10-16T11:41:24;100645.00;;;23.90
16956;BMP180;8594;52.052;8.354;2022-10-16T11:44:06;100646.00;;;24.10
16956;BMP180;8594;52.052;8.354;2022-10-16T11:46:44;100646.00;;;24.40
16956;BMP180;8594;52.052;8.354;2022-10-16T11:49:16;100655.00;;;24.60
16956;BMP180;8594;52.052;8.354;2022-10-16T11:51:57;100651.00;;;24.90
16956;BMP180;8594;52.052;8.354;2022-10-16T11:54:37;100657.00;;;24.70
16956;BMP180;8594;52.052;8.354;2022-10-16T11:57:14;100652.00;;;24.70
16956;BMP180;8594;52.052;8.354;2022-10-16T11:59:47;100660.00;;;24.80
16956;BMP180;8594;52.052;8.354;2022-10-16T12:02:43;100661.00;;;25.20
16956;BMP180;8594;52.052;8.354;2022-10-16T12:05:25;100656.00;;;23.60
16956;BMP180;8594;52.052;8.354;2022-10-16T12:08:09;100667.00;;;23.50
16956;BMP180;8594;52.052;8.354;2022-10-16T12:10:41;100662.00;;;23.90
16956;BMP180;8594;52.052;8.354;2022-10-16T12:13:31;100666.00;;;25.00
16956;BMP180;8594;52.052;8.354;2022-10-16T12:16:19;100677.00;;;24.50
16956;BMP180;8594;52.052;8.354;2022-10-16T12:18:48;100677.00;;;24.80
16956;BMP180;8594;52.052;8.354;2022-10-16T12:21:17;100677.00;;;24.40
16956;BMP180;8594;52.052;8.354;2022-10-16T12:23:50;100682.00;;;24.20
16956;BMP180;8594;52.052;8.354;2022-10-16T12:26:27;100685.00;;;23.70
16956;BMP180;8594;52.052;8.354;2022-10-16T12:29:14;100676.00;;;23.20
16956;BMP180;8594;52.052;8.354;2022-10-16T12:31:46;100689.00;;;23.50
16956;BMP180;8594;52.052;8.354;2022-10-16T12:34:23;100688.00;;;23.60
16956;BMP180;8594;52.052;8.354;2022-10-16T12:36:53;100683.00;;;23.10
16956;BMP180;8594;52.052;8.354;2022-10-16T12:39:24;100690.00;;;23.50
16956;BMP180;8594;52.052;8.354;2022-10-16T12:42:04;100690.00;;;23.70
16956;BMP180;8594;52.052;8.354;2022-10-16T12:44:34;100681.00;;;23.10
16956;BMP180;8594;52.052;8.354;2022-10-16T12:47:02;100686.00;;;23.70
16956;BMP180;8594;52.052;8.354;2022-10-16T12:49:36;100690.00;;;23.90
16956;BMP180;8594;52.052;8.354;2022-10-16T12:52:04;100694.00;;;23.70
16956;BMP180;8594;52.052;8.354;2022-10-16T12:54:35;100699.00;;;23.80
16956;BMP180;8594;52.052;8.354;2022-10-16T12:57:30;100695.00;;;24.20
16956;BMP180;8594;52.052;8.354;2022-10-16T13:00:04;100697.00;;;24.20
16956;BMP180;8594;52.052;8.354;2022-10-16T13:03:20;100702.00;;;24.70
16956;BMP180;8594;52.052;8.354;2022-10-16T13:06:08;100702.00;;;24.70
16956;BMP180;8594;52.052;8.354;2022-10-16T13:09:05;100716.00;;;23.90
16956;BMP180;8594;52.052;8.354;2022-10-16T13:11:52;100717.00;;;24.60
16956;BMP180;8594;52.052;8.354;2022-10-16T13:14:46;100707.00;;;24.40
16956;BMP180;8594;52.052;8.354;2022-10-16T13:17:24;100712.00;;;23.90
16956;BMP180;8594;52.052;8.354;2022-10-16T13:20:02;100710.00;;;24.20
16956;BMP180;8594;52.052;8.354;2022-10-16T13:22:41;100720.00;;;24.30
16956;BMP180;8594;52.052;8.354;2022-10-16T13:25:28;100721.00;;;24.50
16956;BMP180;8594;52.052;8.354;2022-10-16T13:28:01;100720.00;;;23.60
16956;BMP180;8594;52.052;8.354;2022-10-16T13:30:33;100722.00;;;23.90
16956;BMP180;8594;52.052;8.354;2022-10-16T13:33:06;100725.00;;;24.00
16956;BMP180;8594;52.052;8.354;2022-10-16T13:35:35;100731.00;;;23.80
16956;BMP180;8594;52.052;8.354;2022-10-16T13:38:12;100738.00;;;23.90
16956;BMP180;8594;52.052;8.354;2022-10-16T13:40:53;100732.00;;;23.40
16956;BMP180;8594;52.052;8.354;2022-10-16T13:43:26;100741.00;;;24.20
16956;BMP180;8594;52.052;8.354;2022-10-16T13:45:58;100741.00;;;23.90
16956;BMP180;8594;52.052;8.354;2022-10-16T13:48:26;100744.00;;;23.90
16956;BMP180;8594;52.052;8.354;2022-10-16T13:51:01;100738.00;;;23.50
16956;BMP180;8594;52.052;8.354;2022-10-16T13:53:31;100739.00;;;23.30
16956;BMP180;8594;52.052;8.354;2022-10-16T13:55:59;100740.00;;;23.10
16956;BMP180;8594;52.052;8.354;2022-10-16T13:58:27;100749.00;;;23.40
16956;BMP180;8594;52.052;8.354;2022-10-16T14:00:58;100749.00;;;23.10
16956;BMP180;8594;52.052;8.354;2022-10-16T14:03:28;100748.00;;;23.20
16956;BMP180;8594;52.052;8.354;2022-10-16T14:05:59;100750.00;;;23.40
16956;BMP180;8594;52.052;8.354;2022-10-16T14:08:29;100757.00;;;23.50
16956;BMP180;8594;52.052;8.354;2022-10-16T14:10:59;100768.00;;;23.50
16956;BMP180;8594;52.052;8.354;2022-10-16T14:13:32;100767.00;;;23.10
16956;BMP180;8594;52.052;8.354;2022-10-16T14:16:10;100763.00;;;22.90
16956;BMP180;8594;52.052;8.354;2022-10-16T14:18:39;100761.00;;;23.00
16956;BMP180;8594;52.052;8.354;2022-10-16T14:21:12;100767.00;;;23.40
16956;BMP180;8594;52.052;8.354;2022-10-16T14:23:42;100762.00;;;23.40
16956;BMP180;8594;52.052;8.354;2022-10-16T14:26:19;100761.00;;;23.30
16956;BMP180;8594;52.052;8.354;2022-10-16T14:28:48;100761.00;;;23.00
16956;BMP180;8594;52.052;8.354;2022-10-16T14:31:30;100765.00;;;23.00
16956;BMP180;8594;52.052;8.354;2022-10-16T14:33:59;100760.00;;;23.30
16956;BMP180;8594;52.052;8.354;2022-10-16T14:36:27;100756.00;;;23.10
16956;BMP180;8594;52.052;8.354;2022-10-16T14:39:00;100757.00;;;23.20
16956;BMP180;8594;52.052;8.354;2022-10-16T14:41:30;100764.00;;;23.20